createdAt,value
2022-07-28T00:01:18.441Z,99.90
2022-07-28T00:03:49.114Z,99.90
2022-07-28T00:06:19.510Z,99.90
2022-07-28T00:08:46.382Z,99.90
2022-07-28T00:11:13.369Z,99.90
2022-07-28T00:13:44.935Z,99.90
2022-07-28T00:16:13.932Z,99.90
2022-07-28T00:18:43.575Z,99.90
2022-07-28T00:21:13.203Z,99.90
2022-07-28T00:23:40.362Z,99.90
2022-07-28T00:26:11.935Z,99.90
2022-07-28T00:28:41.357Z,99.90
2022-07-28T00:31:11.542Z,99.90
2022-07-28T00:33:40.492Z,99.90
2022-07-28T00:36:10.325Z,99.90
2022-07-28T00:38:43.843Z,99.90
2022-07-28T00:41:14.015Z,99.90
2022-07-28T00:43:47.729Z,99.90
2022-07-28T00:46:16.506Z,99.90
2022-07-28T00:48:46.324Z,99.90
2022-07-28T00:51:21.568Z,99.90
2022-07-28T00:53:48.411Z,99.90
2022-07-28T00:56:15.405Z,99.90
2022-07-28T00:58:42.824Z,99.90
2022-07-28T01:01:11.821Z,99.90
2022-07-28T01:03:41.829Z,99.90
2022-07-28T01:06:47.921Z,99.90
2022-07-28T01:09:38.848Z,99.90
2022-07-28T01:12:20.924Z,99.90
2022-07-28T01:15:19.745Z,99.90
2022-07-28T01:18:06.898Z,99.90
2022-07-28T01:20:41.890Z,99.90
2022-07-28T01:23:19.021Z,99.90
2022-07-28T01:25:54.392Z,99.90
2022-07-28T01:28:42.819Z,99.90
2022-07-28T01:31:14.107Z,99.90
2022-07-28T01:33:51.420Z,99.90
2022-07-28T01:36:24.973Z,99.90
2022-07-28T01:38:51.990Z,99.90
2022-07-28T01:41:25.397Z,99.90
2022-07-28T01:43:57.317Z,99.90
2022-07-28T01:46:27.335Z,99.90
2022-07-28T01:48:56.554Z,99.90
2022-07-28T01:51:29.248Z,99.90
2022-07-28T01:53:59.302Z,99.90
2022-07-28T01:56:30.700Z,99.90
2022-07-28T01:59:06.141Z,99.90
2022-07-28T02:01:36.751Z,99.90
2022-07-28T02:04:08.164Z,99.90
2022-07-28T02:06:35.511Z,99.90
2022-07-28T02:09:06.821Z,99.90
2022-07-28T02:11:42.474Z,99.90
2022-07-28T02:14:14.151Z,99.90
2022-07-28T02:16:46.792Z,99.90
2022-07-28T02:19:17.459Z,99.90
2022-07-28T02:21:47.781Z,99.90
2022-07-28T02:24:19.950Z,99.90
2022-07-28T02:26:57.879Z,99.90
2022-07-28T02:29:49.759Z,99.90
2022-07-28T02:32:28.505Z,99.90
2022-07-28T02:35:05.312Z,99.90
2022-07-28T02:37:37.788Z,99.90
2022-07-28T02:40:11.911Z,99.90
2022-07-28T02:42:41.930Z,99.90
2022-07-28T02:45:11.934Z,99.90
2022-07-28T02:47:44.099Z,99.90
2022-07-28T02:50:12.734Z,99.90
2022-07-28T02:52:44.762Z,99.90
2022-07-28T02:55:15.505Z,99.90
2022-07-28T02:57:45.347Z,99.90
2022-07-28T03:00:15.812Z,99.90
2022-07-28T03:02:46.783Z,99.90
2022-07-28T03:05:15.709Z,99.90
2022-07-28T03:07:51.194Z,99.90
2022-07-28T03:10:33.143Z,99.90
2022-07-28T03:13:04.186Z,99.90
2022-07-28T03:15:31.672Z,99.90
2022-07-28T03:18:02.202Z,99.90
2022-07-28T03:20:30.295Z,99.90
2022-07-28T03:23:02.274Z,99.90
2022-07-28T03:25:43.582Z,99.90
2022-07-28T03:28:15.079Z,99.90
2022-07-28T03:30:45.557Z,99.90
2022-07-28T03:33:15.485Z,99.90
2022-07-28T03:35:46.196Z,99.90
2022-07-28T03:38:18.062Z,99.90
2022-07-28T03:40:46.962Z,99.90
2022-07-28T03:43:16.477Z,99.90
2022-07-28T03:45:46.590Z,99.90
2022-07-28T03:48:14.034Z,99.90
2022-07-28T03:50:43.162Z,99.90
2022-07-28T03:53:17.840Z,99.90
2022-07-28T03:55:50.493Z,99.90
2022-07-28T03:58:28.818Z,99.90
2022-07-28T04:00:58.781Z,99.90
2022-07-28T04:03:36.566Z,99.90
2022-07-28T04:06:11.288Z,99.90
2022-07-28T04:08:41.017Z,99.90
2022-07-28T04:11:12.814Z,99.90
2022-07-28T04:13:39.706Z,99.90
2022-07-28T04:16:07.290Z,99.90
2022-07-28T04:18:36.923Z,99.90
2022-07-28T04:21:08.398Z,99.90
2022-07-28T04:23:35.230Z,99.90
2022-07-28T04:26:02.109Z,99.90
2022-07-28T04:28:28.931Z,99.90
2022-07-28T04:30:56.035Z,99.90
2022-07-28T04:33:23.235Z,99.90
2022-07-28T04:35:52.708Z,99.90
2022-07-28T04:38:20.329Z,99.90
2022-07-28T04:40:51.521Z,99.90
2022-07-28T04:43:18.510Z,99.90
2022-07-28T04:45:53.243Z,99.90
2022-07-28T04:48:24.249Z,99.90
2022-07-28T04:50:53.068Z,99.90
2022-07-28T04:53:23.068Z,99.90
2022-07-28T04:55:51.873Z,99.90
2022-07-28T04:58:21.167Z,99.90
2022-07-28T05:00:53.245Z,99.90
2022-07-28T05:03:20.813Z,99.90
2022-07-28T05:05:54.139Z,99.90
2022-07-28T05:08:21.315Z,99.90
2022-07-28T05:10:50.865Z,99.90
2022-07-28T05:13:23.110Z,99.90
2022-07-28T05:15:49.908Z,99.90
2022-07-28T05:18:17.025Z,99.90
2022-07-28T05:20:43.869Z,99.90
2022-07-28T05:23:11.742Z,99.90
2022-07-28T05:25:39.101Z,99.90
2022-07-28T05:28:08.048Z,99.90
2022-07-28T05:30:37.035Z,99.90
2022-07-28T05:33:03.946Z,99.90
2022-07-28T05:35:30.698Z,99.90
2022-07-28T05:38:00.341Z,99.90
2022-07-28T05:40:27.871Z,99.90
2022-07-28T05:42:54.787Z,99.90
2022-07-28T05:45:21.678Z,99.90
2022-07-28T05:47:52.773Z,99.90
2022-07-28T05:50:26.043Z,99.90
2022-07-28T05:52:53.075Z,99.90
2022-07-28T05:55:20.869Z,99.90
2022-07-28T05:57:47.992Z,99.90
2022-07-28T06:00:20.742Z,99.90
2022-07-28T06:02:50.655Z,99.90
2022-07-28T06:05:22.360Z,99.90
2022-07-28T06:07:50.891Z,99.90
2022-07-28T06:10:22.836Z,99.90
2022-07-28T06:12:54.878Z,99.90
2022-07-28T06:15:26.635Z,99.90
2022-07-28T06:17:55.615Z,99.90
2022-07-28T06:20:24.476Z,99.90
2022-07-28T06:22:57.237Z,99.90
2022-07-28T06:25:28.955Z,99.90
2022-07-28T06:28:03.093Z,99.90
2022-07-28T06:30:30.355Z,99.90
2022-07-28T06:32:57.888Z,99.90
2022-07-28T06:35:25.153Z,99.90
2022-07-28T06:37:56.579Z,99.90
2022-07-28T06:40:26.074Z,99.90
2022-07-28T06:42:53.108Z,99.90
2022-07-28T06:45:21.811Z,99.90
2022-07-28T06:47:49.885Z,99.90
2022-07-28T06:50:25.917Z,99.90
2022-07-28T06:52:58.953Z,99.90
2022-07-28T06:55:28.439Z,99.90
2022-07-28T06:58:03.697Z,99.90
2022-07-28T07:00:33.390Z,99.90
2022-07-28T07:03:01.080Z,99.90
2022-07-28T07:05:32.275Z,99.90
2022-07-28T07:08:06.648Z,99.90
2022-07-28T07:10:33.500Z,99.90
2022-07-28T07:13:02.580Z,99.90
2022-07-28T07:15:29.442Z,99.90
2022-07-28T07:17:56.377Z,99.90
2022-07-28T07:20:25.497Z,99.90
2022-07-28T07:22:52.346Z,99.90
2022-07-28T07:25:20.033Z,99.90
2022-07-28T07:27:47.488Z,99.90
2022-07-28T07:30:16.058Z,99.90
2022-07-28T07:32:45.251Z,99.90
2022-07-28T07:35:14.780Z,99.90
2022-07-28T07:37:42.149Z,99.90
2022-07-28T07:40:13.411Z,99.90
2022-07-28T07:42:42.620Z,99.90
2022-07-28T07:45:09.977Z,99.90
2022-07-28T07:47:36.925Z,99.90
2022-07-28T07:50:04.682Z,99.90
2022-07-28T07:52:32.176Z,99.90
2022-07-28T07:55:04.673Z,99.90
2022-07-28T07:57:32.474Z,99.90
2022-07-28T07:59:59.275Z,99.90
2022-07-28T08:02:28.393Z,99.90
2022-07-28T08:04:57.730Z,99.90
2022-07-28T08:07:25.364Z,99.90
2022-07-28T08:09:54.951Z,99.90
2022-07-28T08:12:24.651Z,99.90
2022-07-28T08:14:53.436Z,99.90
2022-07-28T08:17:25.538Z,99.90
2022-07-28T08:19:53.582Z,99.90
2022-07-28T08:22:22.698Z,99.90
2022-07-28T08:24:49.694Z,99.90
2022-07-28T08:27:19.176Z,99.90
2022-07-28T08:29:46.008Z,99.90
2022-07-28T08:32:13.130Z,99.90
2022-07-28T08:34:40.198Z,99.90
2022-07-28T08:37:07.143Z,99.90
2022-07-28T08:39:34.930Z,99.90
2022-07-28T08:42:16.480Z,99.90
2022-07-28T08:44:56.293Z,99.90
2022-07-28T08:47:35.658Z,99.90
2022-07-28T08:50:08.244Z,99.90
2022-07-28T08:52:38.877Z,99.90
2022-07-28T08:55:08.898Z,99.80
2022-07-28T08:57:45.985Z,99.90
2022-07-28T09:00:13.232Z,99.90
2022-07-28T09:02:46.111Z,99.90
2022-07-28T09:05:13.825Z,99.90
2022-07-28T09:07:42.108Z,98.80
2022-07-28T09:10:11.852Z,97.20
2022-07-28T09:12:39.986Z,97.50
2022-07-28T09:15:08.955Z,96.40
2022-07-28T09:17:38.665Z,95.70
2022-07-28T09:20:10.835Z,97.00
2022-07-28T09:22:55.920Z,96.90
2022-07-28T09:25:28.227Z,95.90
2022-07-28T09:28:09.673Z,95.30
2022-07-28T09:30:53.624Z,95.80
2022-07-28T09:33:41.801Z,95.00
2022-07-28T09:36:15.537Z,95.30
2022-07-28T09:38:42.520Z,94.40
2022-07-28T09:41:14.633Z,95.40
2022-07-28T09:43:44.519Z,93.50
2022-07-28T09:46:12.930Z,93.80
2022-07-28T09:48:49.194Z,94.20
2022-07-28T09:51:19.378Z,92.00
2022-07-28T09:53:48.797Z,93.00
2022-07-28T09:56:18.741Z,94.00
2022-07-28T09:58:57.919Z,93.60
2022-07-28T10:01:31.181Z,93.40
2022-07-28T10:04:04.083Z,92.10
2022-07-28T10:06:34.671Z,93.50
2022-07-28T10:09:07.832Z,92.20
2022-07-28T10:11:41.612Z,92.50
2022-07-28T10:14:14.142Z,92.80
2022-07-28T10:16:52.645Z,92.80
2022-07-28T10:19:19.600Z,92.80
2022-07-28T10:21:48.495Z,92.80
2022-07-28T10:24:22.168Z,92.40
2022-07-28T10:26:50.436Z,92.60
2022-07-28T10:29:20.380Z,93.30
2022-07-28T10:31:57.879Z,92.50
2022-07-28T10:34:48.263Z,93.10
2022-07-28T10:37:21.381Z,92.60
2022-07-28T10:40:10.582Z,91.60
2022-07-28T10:42:39.622Z,92.10
2022-07-28T10:45:10.555Z,92.20
2022-07-28T10:47:37.432Z,92.60
2022-07-28T10:50:17.648Z,93.20
2022-07-28T10:52:53.665Z,93.00
2022-07-28T10:55:33.345Z,92.80
2022-07-28T10:58:11.275Z,94.00
2022-07-28T11:00:56.813Z,93.70
2022-07-28T11:03:44.401Z,93.10
2022-07-28T11:06:46.028Z,93.30
2022-07-28T11:09:16.066Z,92.00
2022-07-28T11:11:57.947Z,93.50
2022-07-28T11:14:26.023Z,93.40
2022-07-28T11:17:10.172Z,92.50
2022-07-28T11:20:01.110Z,93.60
2022-07-28T11:22:33.195Z,93.50
2022-07-28T11:25:18.889Z,92.90
2022-07-28T11:27:51.521Z,92.70
2022-07-28T11:30:19.220Z,92.50
2022-07-28T11:32:51.501Z,92.30
2022-07-28T11:35:20.190Z,92.30
2022-07-28T11:38:02.471Z,92.60
2022-07-28T11:40:37.840Z,92.40
2022-07-28T11:43:30.650Z,92.70
2022-07-28T11:46:09.479Z,92.60
2022-07-28T11:48:42.813Z,92.10
2022-07-28T11:51:15.989Z,92.00
2022-07-28T11:53:45.577Z,92.70
2022-07-28T11:56:14.533Z,93.40
2022-07-28T11:58:42.721Z,92.30
2022-07-28T12:01:18.041Z,91.90
2022-07-28T12:03:54.186Z,91.30
2022-07-28T12:06:34.036Z,91.50
2022-07-28T12:09:08.163Z,91.50
2022-07-28T12:11:37.179Z,91.80
2022-07-28T12:14:15.503Z,91.60
2022-07-28T12:16:45.247Z,91.10
2022-07-28T12:19:15.808Z,91.20
2022-07-28T12:21:49.258Z,90.20
2022-07-28T12:24:46.015Z,91.30
2022-07-28T12:27:15.323Z,90.30
2022-07-28T12:29:43.653Z,90.80
2022-07-28T12:32:10.767Z,89.00
2022-07-28T12:34:40.936Z,89.10
2022-07-28T12:37:12.208Z,90.70
2022-07-28T12:39:42.016Z,92.00
2022-07-28T12:42:13.363Z,91.60
2022-07-28T12:44:41.250Z,90.60
2022-07-28T12:47:13.389Z,91.30
2022-07-28T12:49:42.096Z,90.50
2022-07-28T12:52:22.128Z,90.00
2022-07-28T12:54:55.017Z,90.10
2022-07-28T12:57:50.440Z,91.20
2022-07-28T13:00:28.378Z,90.40
2022-07-28T13:02:57.699Z,88.70
2022-07-28T13:05:58.386Z,86.00
2022-07-28T13:08:27.684Z,87.60
2022-07-28T13:11:01.234Z,90.50
2022-07-28T13:13:28.839Z,91.10
2022-07-28T13:16:18.795Z,90.00
2022-07-28T13:18:55.864Z,90.50
2022-07-28T13:21:38.680Z,90.60
2022-07-28T13:24:05.735Z,91.00
2022-07-28T13:26:34.773Z,90.30
2022-07-28T13:29:12.784Z,92.40
2022-07-28T13:31:42.490Z,91.20
2022-07-28T13:34:10.163Z,90.50
2022-07-28T13:36:38.324Z,90.90
2022-07-28T13:39:06.542Z,90.50
2022-07-28T13:41:56.247Z,88.60
2022-07-28T13:44:20.792Z,90.20
2022-07-28T13:46:50.648Z,91.10
2022-07-28T13:49:22.814Z,90.60
2022-07-28T13:51:51.135Z,90.20
2022-07-28T13:54:19.313Z,87.70
2022-07-28T13:57:05.543Z,84.30
2022-07-28T13:59:32.532Z,84.30
2022-07-28T14:02:03.471Z,74.20
2022-07-28T14:04:30.416Z,69.80
2022-07-28T14:06:58.591Z,68.10
2022-07-28T14:09:27.598Z,62.70
2022-07-28T14:11:54.690Z,53.80
2022-07-28T14:14:25.558Z,54.60
2022-07-28T14:16:54.213Z,55.50
2022-07-28T14:19:23.342Z,52.70
2022-07-28T14:22:12.695Z,47.90
2022-07-28T14:24:42.998Z,49.50
2022-07-28T14:27:11.097Z,44.00
2022-07-28T14:29:43.298Z,45.60
2022-07-28T14:32:12.176Z,45.00
2022-07-28T14:34:39.735Z,41.20
2022-07-28T14:37:09.531Z,45.80
2022-07-28T14:39:38.190Z,45.70
2022-07-28T14:42:07.711Z,47.70
2022-07-28T14:44:34.811Z,47.90
2022-07-28T14:47:02.141Z,45.70
2022-07-28T14:49:31.881Z,50.30
2022-07-28T14:51:59.495Z,48.60
2022-07-28T14:54:29.262Z,45.30
2022-07-28T14:56:58.574Z,48.70
2022-07-28T14:59:29.939Z,48.20
2022-07-28T15:01:57.456Z,43.50
2022-07-28T15:04:25.476Z,42.80
2022-07-28T15:06:52.899Z,44.70
2022-07-28T15:09:24.559Z,47.90
2022-07-28T15:11:51.453Z,48.90
2022-07-28T15:14:21.526Z,47.20
2022-07-28T15:16:51.454Z,47.60
2022-07-28T15:19:22.745Z,47.30
2022-07-28T15:21:49.818Z,50.70
2022-07-28T15:24:17.338Z,51.10
2022-07-28T15:26:46.916Z,52.40
2022-07-28T15:29:14.041Z,55.40
2022-07-28T15:31:42.372Z,57.00
2022-07-28T15:34:12.423Z,56.20
2022-07-28T15:36:42.594Z,57.70
2022-07-28T15:39:14.137Z,57.50
2022-07-28T15:41:45.776Z,58.50
2022-07-28T15:44:14.123Z,60.20
2022-07-28T15:46:41.476Z,60.20
2022-07-28T15:49:10.438Z,61.60
2022-07-28T15:51:40.348Z,64.30
2022-07-28T15:54:07.723Z,61.20
2022-07-28T15:56:35.957Z,63.50
2022-07-28T15:59:05.509Z,64.70
2022-07-28T16:01:32.787Z,61.90
2022-07-28T16:04:00.523Z,63.00
2022-07-28T16:06:51.590Z,62.70
2022-07-28T16:09:18.841Z,62.50
2022-07-28T16:11:48.104Z,62.50
2022-07-28T16:14:18.087Z,66.20
2022-07-28T16:16:48.020Z,66.20
2022-07-28T16:19:38.521Z,65.50
2022-07-28T16:22:03.258Z,66.70
2022-07-28T16:24:30.214Z,64.60
2022-07-28T16:26:57.289Z,66.30
2022-07-28T16:29:26.301Z,65.80
2022-07-28T16:31:55.743Z,65.80
2022-07-28T16:34:25.339Z,63.90
2022-07-28T16:36:52.328Z,64.80
2022-07-28T16:39:19.438Z,63.00
2022-07-28T16:41:48.226Z,62.70
2022-07-28T16:44:16.068Z,66.80
2022-07-28T16:46:49.937Z,70.40
2022-07-28T16:49:16.945Z,69.20
2022-07-28T16:51:43.916Z,70.00
2022-07-28T16:54:15.733Z,67.00
2022-07-28T16:56:45.837Z,66.60
2022-07-28T16:59:13.181Z,64.70
2022-07-28T17:01:46.209Z,65.20
2022-07-28T17:04:17.211Z,65.60
2022-07-28T17:06:47.776Z,65.80
2022-07-28T17:09:15.988Z,67.30
2022-07-28T17:11:50.059Z,65.90
2022-07-28T17:14:18.902Z,65.40
2022-07-28T17:16:46.155Z,65.30
2022-07-28T17:19:13.051Z,69.00
2022-07-28T17:21:39.973Z,68.20
2022-07-28T17:24:11.975Z,67.30
2022-07-28T17:29:26.466Z,66.00
2022-07-28T17:31:55.593Z,68.20
2022-07-28T17:34:22.718Z,66.80
2022-07-28T17:36:55.520Z,69.90
2022-07-28T17:39:22.535Z,66.90
2022-07-28T17:41:50.432Z,66.60
2022-07-28T17:44:17.963Z,67.20
2022-07-28T17:46:46.650Z,67.40
2022-07-28T17:49:13.596Z,67.10
2022-07-28T17:51:42.659Z,66.90
2022-07-28T17:54:14.212Z,66.10
2022-07-28T17:56:44.310Z,66.90
2022-07-28T17:59:11.127Z,68.30
2022-07-28T18:01:45.085Z,67.80
2022-07-28T18:04:14.898Z,68.20
2022-07-28T18:06:44.569Z,67.80
2022-07-28T18:09:12.034Z,66.80
2022-07-28T18:11:56.619Z,67.60
2022-07-28T18:14:29.747Z,67.60
2022-07-28T18:16:57.191Z,67.70
2022-07-28T18:19:24.705Z,67.30
2022-07-28T18:21:51.725Z,68.30
2022-07-28T18:24:21.606Z,71.90
2022-07-28T18:26:51.407Z,72.10
2022-07-28T18:29:21.429Z,69.40
2022-07-28T18:31:50.831Z,69.50
2022-07-28T18:34:18.412Z,74.70
2022-07-28T18:36:46.165Z,72.90
2022-07-28T18:39:13.095Z,72.10
2022-07-28T18:41:46.341Z,72.70
2022-07-28T18:44:14.310Z,74.70
2022-07-28T18:46:46.251Z,72.00
2022-07-28T18:49:15.732Z,71.40
2022-07-28T18:51:45.721Z,72.80
2022-07-28T18:54:16.475Z,71.80
2022-07-28T18:56:45.711Z,74.10
2022-07-28T18:59:15.539Z,72.60
2022-07-28T19:01:42.617Z,73.50
2022-07-28T19:04:11.891Z,79.30
2022-07-28T19:06:38.908Z,76.70
2022-07-28T19:09:06.269Z,73.20
2022-07-28T19:11:33.502Z,72.00
2022-07-28T19:14:04.854Z,73.40
2022-07-28T19:16:33.901Z,73.90
2022-07-28T19:19:03.037Z,74.10
2022-07-28T19:21:31.178Z,73.30
2022-07-28T19:23:58.016Z,74.50
2022-07-28T19:26:24.984Z,73.40
2022-07-28T19:28:52.429Z,74.10
2022-07-28T19:31:19.477Z,73.30
2022-07-28T19:33:48.504Z,73.90
2022-07-28T19:36:15.647Z,73.90
2022-07-28T19:38:43.935Z,75.90
2022-07-28T19:41:13.537Z,77.70
2022-07-28T19:43:40.564Z,78.30
2022-07-28T19:46:07.621Z,78.20
2022-07-28T19:48:34.515Z,82.80
2022-07-28T19:51:01.386Z,78.20
2022-07-28T19:53:32.350Z,78.80
2022-07-28T19:56:08.906Z,81.60
2022-07-28T19:58:36.459Z,79.20
2022-07-28T20:01:07.172Z,83.60
2022-07-28T20:04:01.249Z,83.00
2022-07-28T20:06:25.009Z,82.30
2022-07-28T20:08:53.156Z,81.30
2022-07-28T20:11:20.143Z,81.10
2022-07-28T20:13:49.573Z,81.60
2022-07-28T20:16:17.138Z,81.10
2022-07-28T20:18:46.256Z,82.70
2022-07-28T20:21:13.178Z,79.80
2022-07-28T20:23:44.747Z,84.20
2022-07-28T20:26:14.557Z,82.40
2022-07-28T20:28:41.489Z,83.30
2022-07-28T20:31:10.447Z,82.40
2022-07-28T20:33:44.997Z,81.60
2022-07-28T20:36:14.132Z,80.80
2022-07-28T20:38:41.134Z,80.10
2022-07-28T20:41:08.024Z,78.40
2022-07-28T20:43:37.900Z,78.80
2022-07-28T20:46:05.405Z,78.30
2022-07-28T20:48:32.495Z,79.90
2022-07-28T20:51:01.410Z,81.10
2022-07-28T20:53:33.976Z,79.70
2022-07-28T20:56:06.121Z,78.90
2022-07-28T20:58:35.177Z,80.30
2022-07-28T21:01:02.034Z,80.70
2022-07-28T21:03:31.304Z,79.60
2022-07-28T21:05:58.141Z,80.20
2022-07-28T21:08:24.942Z,82.00
2022-07-28T21:10:54.109Z,80.00
2022-07-28T21:13:20.900Z,81.20
2022-07-28T21:15:47.788Z,83.10
2022-07-28T21:18:15.331Z,81.10
2022-07-28T21:20:42.362Z,82.70
2022-07-28T21:23:09.428Z,82.10
2022-07-28T21:25:38.440Z,82.00
2022-07-28T21:28:24.681Z,82.00
2022-07-28T21:30:56.282Z,80.10
2022-07-28T21:33:23.414Z,82.10
2022-07-28T21:35:50.736Z,82.00
2022-07-28T21:38:19.966Z,81.10
2022-07-28T21:40:49.299Z,82.00
2022-07-28T21:43:18.664Z,81.70
2022-07-28T21:45:47.905Z,80.80
2022-07-28T21:48:16.963Z,81.60
2022-07-28T21:50:48.899Z,81.20
2022-07-28T21:53:18.431Z,82.30
2022-07-28T21:55:48.281Z,81.70
2022-07-28T21:58:15.715Z,81.10
2022-07-28T22:00:45.457Z,81.40
2022-07-28T22:03:12.545Z,82.70
2022-07-28T22:05:39.424Z,81.90
2022-07-28T22:08:11.047Z,82.10
2022-07-28T22:10:37.972Z,82.90
2022-07-28T22:13:04.775Z,82.20
2022-07-28T22:15:31.654Z,83.60
2022-07-28T22:18:00.912Z,82.60
2022-07-28T22:20:27.758Z,83.00
2022-07-28T22:22:57.017Z,82.80
2022-07-28T22:25:24.040Z,82.90
2022-07-28T22:27:50.945Z,83.20
2022-07-28T22:30:17.824Z,83.20
2022-07-28T22:32:44.671Z,84.60
2022-07-28T22:35:11.658Z,83.40
2022-07-28T22:37:40.904Z,83.30
2022-07-28T22:40:11.899Z,83.50
2022-07-28T22:42:41.202Z,83.40
2022-07-28T22:45:08.663Z,84.30
2022-07-28T22:47:37.754Z,84.00
2022-07-28T22:50:06.627Z,84.10
2022-07-28T22:52:35.805Z,84.20
2022-07-28T22:55:05.835Z,84.90
2022-07-28T22:57:32.697Z,85.20
2022-07-28T22:59:59.674Z,85.10
2022-07-28T23:02:28.775Z,85.10
2022-07-28T23:04:56.549Z,85.40
2022-07-28T23:07:50.858Z,85.70
2022-07-28T23:10:11.050Z,85.80
2022-07-28T23:12:37.886Z,85.80
2022-07-28T23:15:05.835Z,86.40
2022-07-28T23:17:32.686Z,86.00
2022-07-28T23:20:01.507Z,86.30
2022-07-28T23:22:29.333Z,86.10
2022-07-28T23:24:56.824Z,86.40
2022-07-28T23:27:25.984Z,86.70
2022-07-28T23:29:54.988Z,87.40
2022-07-28T23:32:21.757Z,87.20
2022-07-28T23:34:49.635Z,87.30
2022-07-28T23:37:18.614Z,87.30
2022-07-28T23:39:47.679Z,87.10
2022-07-28T23:42:14.952Z,87.50
2022-07-28T23:44:41.772Z,88.00
2022-07-28T23:47:10.852Z,88.10
2022-07-28T23:49:42.498Z,88.50
2022-07-28T23:52:09.387Z,88.40
2022-07-28T23:54:36.265Z,88.50
2022-07-28T23:57:03.207Z,88.50
2022-07-28T23:59:33.736Z,89.70
